Time;durP1;ratioP1;P1;durP2;ratioP2;P2;SDS_P1;SDS_P2;PMS_P1;PMS_P2;Temp;Humidity;BMP_temperature;BMP_pressure;BME280_temperature;BME280_humidity;BME280_pressure;Samples;Min_cycle;Max_cycle;Signal;HPM_P1;HPM_P2
2022/05/16 00:00:54;;;;;;;2.37;1.73;;;26.90;38.80;;;;;;4924210;28;91365;-72
2022/05/16 00:03:24;;;;;;;2.30;1.70;;;26.90;38.90;;;;;;4925608;28;93288;-72
2022/05/16 00:05:52;;;;;;;4.63;2.00;;;26.90;39.60;;;;;;4926459;28;89499;-72
2022/05/16 00:08:21;;;;;;;1.93;1.50;;;26.90;38.90;;;;;;4923392;28;88589;-72
2022/05/16 00:10:50;;;;;;;2.27;1.30;;;26.90;38.90;;;;;;4923209;28;90666;-72
2022/05/16 00:13:20;;;;;;;1.60;1.40;;;26.90;39.00;;;;;;4922370;28;89525;-71
2022/05/16 00:15:49;;;;;;;1.50;1.30;;;26.90;39.00;;;;;;4926474;28;88682;-72
2022/05/16 00:18:17;;;;;;;1.73;1.47;;;26.90;39.00;;;;;;4924524;28;88734;-71
2022/05/16 00:20:46;;;;;;;1.90;1.20;;;26.90;39.00;;;;;;4928687;28;90860;-71
2022/05/16 00:23:15;;;;;;;1.77;1.40;;;26.90;39.00;;;;;;4923590;28;89392;-72
2022/05/16 00:25:43;;;;;;;1.80;1.43;;;26.80;38.90;;;;;;4924398;28;88451;-72
2022/05/16 00:28:11;;;;;;;2.17;1.63;;;26.80;38.90;;;;;;4924025;28;88647;-71
2022/05/16 00:30:39;;;;;;;3.40;1.63;;;26.90;39.00;;;;;;4926274;28;90115;-71
2022/05/16 00:33:08;;;;;;;1.97;1.33;;;26.80;39.00;;;;;;4924368;28;89245;-72
2022/05/16 00:35:36;;;;;;;1.87;1.20;;;26.80;39.00;;;;;;4925820;28;89050;-72
2022/05/16 00:38:06;;;;;;;3.10;1.40;;;26.80;39.00;;;;;;4924335;28;88615;-72
2022/05/16 00:40:34;;;;;;;1.33;1.00;;;26.90;39.10;;;;;;4926338;28;90590;-72
2022/05/16 00:43:03;;;;;;;1.57;1.07;;;26.80;39.00;;;;;;4924089;28;89960;-72
2022/05/16 00:45:31;;;;;;;1.90;1.30;;;26.80;39.10;;;;;;4923760;28;88592;-72
2022/05/16 00:47:59;;;;;;;1.50;1.23;;;26.80;39.10;;;;;;4925138;28;88667;-72
2022/05/16 00:50:28;;;;;;;1.33;1.07;;;26.80;39.10;;;;;;4927149;28;89604;-72
2022/05/16 00:52:56;;;;;;;2.93;1.03;;;26.80;39.10;;;;;;4923904;28;89274;-72
2022/05/16 00:55:27;;;;;;;3.33;1.20;;;26.80;39.20;;;;;;4923907;28;88462;-71
2022/05/16 00:57:58;;;;;;;2.40;1.53;;;26.80;39.20;;;;;;4925779;28;88570;-72
2022/05/16 01:00:31;;;;;;;2.20;1.20;;;26.80;39.20;;;;;;4922026;28;89496;-72
2022/05/16 01:05:50;;;;;;;3.07;1.23;;;26.80;39.20;;;;;;4924224;28;88556;-72
2022/05/16 01:08:19;;;;;;;4.53;1.23;;;26.80;39.20;;;;;;4925152;28;88533;-71
2022/05/16 01:10:49;;;;;;;1.60;1.50;;;26.80;39.40;;;;;;4954096;28;89120;-72
2022/05/16 01:13:19;;;;;;;2.73;0.83;;;26.80;39.30;;;;;;4922826;28;89168;-73
2022/05/16 01:15:49;;;;;;;1.17;1.10;;;26.70;39.30;;;;;;4925386;28;88583;-72
2022/05/16 01:18:18;;;;;;;2.53;1.27;;;26.70;39.30;;;;;;4923439;28;88321;-72
2022/05/16 01:20:54;;;;;;;2.37;0.97;;;26.70;39.30;;;;;;4922802;28;89491;-72
2022/05/16 01:23:25;;;;;;;1.80;1.07;;;26.70;39.30;;;;;;4921560;28;88991;-73
2022/05/16 01:25:53;;;;;;;1.60;0.90;;;26.70;39.30;;;;;;4925898;28;88532;-71
2022/05/16 01:28:22;;;;;;;2.63;0.80;;;26.70;39.40;;;;;;4923778;28;88595;-71
2022/05/16 01:30:51;;;;;;;1.23;1.13;;;26.70;39.40;;;;;;4923764;28;93071;-72
2022/05/16 01:33:20;;;;;;;2.43;1.30;;;26.70;39.40;;;;;;4920712;28;88438;-72
2022/05/16 01:35:48;;;;;;;3.43;1.30;;;26.70;39.40;;;;;;4924052;28;88300;-72
2022/05/16 01:38:21;;;;;;;1.53;1.10;;;26.70;39.40;;;;;;4924294;28;88421;-72
2022/05/16 01:40:52;;;;;;;0.80;0.80;;;26.70;39.40;;;;;;4916328;28;90807;-72
2022/05/16 01:43:21;;;;;;;1.63;1.00;;;26.70;39.40;;;;;;4943317;28;89148;-72
2022/05/16 01:45:49;;;;;;;2.97;1.03;;;26.70;39.40;;;;;;4934439;28;88331;-72
2022/05/16 01:48:17;;;;;;;1.73;1.07;;;26.70;39.50;;;;;;4923556;28;88524;-72
2022/05/16 01:50:46;;;;;;;3.40;1.20;;;26.70;39.50;;;;;;4926627;28;89968;-72
2022/05/16 01:53:14;;;;;;;2.70;1.23;;;26.70;39.50;;;;;;4940834;28;89729;-72
2022/05/16 01:55:42;;;;;;;2.83;1.10;;;26.70;39.60;;;;;;4927543;28;88502;-72
2022/05/16 01:58:11;;;;;;;3.50;1.40;;;26.70;39.60;;;;;;4924031;28;88532;-72
2022/05/16 02:00:40;;;;;;;1.13;0.90;;;26.70;39.60;;;;;;4926943;28;91725;-72
2022/05/16 02:03:08;;;;;;;1.43;1.27;;;26.70;39.60;;;;;;4922731;28;88766;-72
2022/05/16 02:05:36;;;;;;;2.47;1.23;;;26.70;39.60;;;;;;4923305;28;88405;-72
2022/05/16 02:08:04;;;;;;;2.00;1.37;;;26.70;39.60;;;;;;4925106;28;88567;-72
2022/05/16 02:10:33;;;;;;;1.90;1.37;;;26.70;40.20;;;;;;4935728;28;92773;-72
2022/05/16 02:13:03;;;;;;;1.40;1.13;;;26.60;39.50;;;;;;4923137;28;90022;-72
2022/05/16 02:15:33;;;;;;;3.00;1.40;;;26.60;39.60;;;;;;4926656;28;88329;-71
2022/05/16 02:18:01;;;;;;;1.37;1.27;;;26.60;39.60;;;;;;4923750;28;88439;-72
2022/05/16 02:20:29;;;;;;;2.53;1.40;;;26.60;39.60;;;;;;4923020;28;90648;-72
2022/05/16 02:25:45;;;;;;;1.00;0.90;;;26.60;39.60;;;;;;4926632;28;88432;-72
2022/05/16 02:28:14;;;;;;;2.97;1.20;;;26.60;39.60;;;;;;4934166;28;88571;-73
2022/05/16 02:30:49;;;;;;;3.10;1.53;;;26.60;39.60;;;;;;4937903;28;89550;-72
2022/05/16 02:33:17;;;;;;;2.20;1.00;;;26.60;39.70;;;;;;4942379;28;92801;-72
2022/05/16 02:35:46;;;;;;;2.00;1.07;;;26.60;39.60;;;;;;4937124;28;88589;-72
2022/05/16 02:38:14;;;;;;;3.23;1.40;;;26.60;39.70;;;;;;4941457;28;88491;-72
2022/05/16 02:40:42;;;;;;;2.93;1.30;;;26.60;39.70;;;;;;4923354;28;89542;-72
2022/05/16 02:43:10;;;;;;;2.70;0.93;;;26.60;39.70;;;;;;4922887;28;88773;-72
2022/05/16 02:45:38;;;;;;;1.33;1.03;;;26.60;39.70;;;;;;4926953;28;88411;-74
2022/05/16 02:48:08;;;;;;;2.47;0.93;;;26.60;39.70;;;;;;4922766;28;88465;-72
2022/05/16 02:50:36;;;;;;;1.63;1.20;;;26.70;39.80;;;;;;4921788;28;89978;-72
2022/05/16 02:53:07;;;;;;;3.20;1.30;;;26.50;39.70;;;;;;4929907;28;90013;-73
2022/05/16 02:55:35;;;;;;;2.53;1.10;;;26.60;39.80;;;;;;4941914;28;88338;-72
2022/05/16 02:58:02;;;;;;;1.80;1.10;;;26.60;39.80;;;;;;4942227;28;88505;-72
2022/05/16 03:00:31;;;;;;;2.27;1.23;;;26.60;39.80;;;;;;4934591;28;93778;-71
2022/05/16 03:02:59;;;;;;;2.60;1.10;;;26.50;39.70;;;;;;4921645;28;89996;-72
2022/05/16 03:05:28;;;;;;;3.53;1.30;;;26.50;39.70;;;;;;4923614;28;88485;-72
2022/05/16 03:07:56;;;;;;;3.33;1.30;;;26.50;39.70;;;;;;4939541;28;88414;-72
2022/05/16 03:10:26;;;;;;;0.90;0.90;;;26.50;39.70;;;;;;4940732;28;88664;-72
2022/05/16 03:12:54;;;;;;;4.50;1.53;;;26.50;39.70;;;;;;4928864;28;90072;-72
2022/05/16 03:15:22;;;;;;;1.50;1.20;;;26.50;39.80;;;;;;4905321;28;88561;-71
2022/05/16 03:17:50;;;;;;;3.03;1.57;;;26.50;39.80;;;;;;4913548;28;89256;-72
2022/05/16 03:20:19;;;;;;;3.03;1.67;;;26.50;39.80;;;;;;4912831;28;90683;-72
2022/05/16 03:22:49;;;;;;;3.07;1.37;;;26.50;39.80;;;;;;4904513;28;90135;-72
2022/05/16 03:25:17;;;;;;;2.07;1.37;;;26.50;39.80;;;;;;4910686;28;88529;-72
2022/05/16 03:27:46;;;;;;;5.80;3.67;;;26.50;39.90;;;;;;4913889;28;88547;-72
2022/05/16 03:30:15;;;;;;;2.20;1.30;;;26.50;39.90;;;;;;4918788;28;90667;-71
2022/05/16 03:32:44;;;;;;;9.70;6.27;;;26.50;40.00;;;;;;4912042;28;92933;-72
2022/05/16 03:35:12;;;;;;;10.77;6.97;;;26.50;40.60;;;;;;4930632;28;88926;-72
2022/05/16 03:37:41;;;;;;;2.73;1.87;;;26.50;39.90;;;;;;4918750;28;88985;-72
2022/05/16 03:42:57;;;;;;;8.47;3.57;;;26.40;39.90;;;;;;4920111;28;89039;-71
2022/05/16 03:45:25;;;;;;;6.47;3.40;;;26.40;39.90;;;;;;4936758;28;88540;-72
2022/05/16 03:47:53;;;;;;;4.77;3.53;;;26.40;39.90;;;;;;4933906;28;88501;-72
2022/05/16 03:50:21;;;;;;;6.10;3.83;;;26.40;40.00;;;;;;4921130;28;90956;-72
2022/05/16 03:52:49;;;;;;;5.50;3.33;;;26.40;40.00;;;;;;4922235;28;90793;-72
2022/05/16 03:55:19;;;;;;;6.00;3.73;;;26.40;40.00;;;;;;4922343;28;88305;-72
2022/05/16 03:57:49;;;;;;;5.63;3.37;;;26.50;40.00;;;;;;4921896;28;88706;-72
2022/05/16 04:00:17;;;;;;;6.60;3.77;;;26.40;39.90;;;;;;4921913;28;90575;-72
2022/05/16 04:02:46;;;;;;;7.00;3.83;;;26.50;40.00;;;;;;4921319;28;88983;-72
2022/05/16 04:05:19;;;;;;;12.50;4.70;;;26.40;39.90;;;;;;4922080;28;88552;-72
2022/05/16 04:07:49;;;;;;;7.50;4.20;;;26.40;39.90;;;;;;4921843;28;88639;-72
2022/05/16 04:10:19;;;;;;;7.40;3.90;;;26.50;39.90;;;;;;4922505;28;89659;-72
2022/05/16 04:12:47;;;;;;;5.53;3.67;;;26.40;39.80;;;;;;4925221;28;90111;-72
2022/05/16 04:15:15;;;;;;;11.50;4.10;;;26.40;39.80;;;;;;4925140;28;88938;-72
2022/05/16 04:17:45;;;;;;;6.63;4.03;;;26.50;39.90;;;;;;4925582;28;88416;-72
2022/05/16 04:20:13;;;;;;;6.07;4.30;;;26.40;39.80;;;;;;4925263;28;92872;-72
2022/05/16 04:22:41;;;;;;;7.20;4.03;;;26.50;39.90;;;;;;4924757;28;91478;-72
2022/05/16 04:25:10;;;;;;;7.93;4.50;;;26.50;39.90;;;;;;4925461;28;88378;-72
2022/05/16 04:27:40;;;;;;;5.90;3.80;;;26.50;39.90;;;;;;4924818;28;88647;-71
2022/05/16 04:30:09;;;;;;;6.70;3.97;;;26.50;39.80;;;;;;4924675;28;89333;-72
2022/05/16 04:32:37;;;;;;;6.53;4.43;;;26.50;39.80;;;;;;4924753;28;92443;-71
2022/05/16 04:35:10;;;;;;;7.87;4.13;;;26.50;39.80;;;;;;4924759;28;88704;-72
2022/05/16 04:37:38;;;;;;;6.00;3.37;;;26.60;39.80;;;;;;4925052;28;88610;-70
2022/05/16 04:40:08;;;;;;;8.43;5.03;;;26.60;39.70;;;;;;4927831;28;89547;-69
2022/05/16 04:42:40;;;;;;;8.47;4.60;;;26.70;39.70;;;;;;4936429;28;89950;-70
2022/05/16 04:45:13;;;;;;;9.47;4.70;;;26.90;39.60;;;;;;4924676;28;88571;-70
2022/05/16 04:47:42;;;;;;;7.97;4.93;;;27.00;39.50;;;;;;4924588;28;88473;-72
2022/05/16 04:50:11;;;;;;;7.80;5.07;;;27.10;39.50;;;;;;4924533;28;90636;-71
2022/05/16 04:52:39;;;;;;;9.43;5.43;;;27.10;39.50;;;;;;4927520;28;89953;-71
2022/05/16 04:55:07;;;;;;;10.53;6.13;;;27.10;39.60;;;;;;4924110;28;88460;-71
2022/05/16 04:57:35;;;;;;;9.60;5.97;;;27.10;39.70;;;;;;4925585;28;88505;-71
2022/05/16 05:00:04;;;;;;;8.50;5.73;;;27.00;39.80;;;;;;4932755;28;90761;-71
2022/05/16 05:02:34;;;;;;;8.60;5.63;;;27.00;40.00;;;;;;4939508;28;90062;-71
2022/05/16 05:05:03;;;;;;;10.90;5.90;;;26.90;40.00;;;;;;4924392;28;88651;-67
2022/05/16 05:07:31;;;;;;;13.90;6.40;;;26.90;40.10;;;;;;4928317;28;88494;-68
2022/05/16 05:15:30;;;;;;;7.40;5.73;;;26.80;40.40;;;;;;4942469;28;88316;-71
2022/05/16 05:18:00;;;;;;;12.33;6.63;;;26.80;40.50;;;;;;4928063;28;88688;-71
2022/05/16 05:20:28;;;;;;;9.73;6.00;;;26.80;40.70;;;;;;4918566;28;90593;-71
2022/05/16 05:22:56;;;;;;;11.10;7.00;;;26.80;40.80;;;;;;4922787;28;89355;-71
2022/05/16 05:25:24;;;;;;;10.07;6.70;;;26.80;40.90;;;;;;4927465;28;88328;-71
2022/05/16 05:27:53;;;;;;;11.53;6.40;;;26.80;40.90;;;;;;4924104;28;88541;-71
2022/05/16 05:30:24;;;;;;;10.17;6.73;;;26.80;41.10;;;;;;4923831;28;90322;-71
2022/05/16 05:32:52;;;;;;;10.57;6.90;;;26.80;41.10;;;;;;4923946;28;89576;-71
2022/05/16 05:35:22;;;;;;;12.73;7.47;;;26.80;41.20;;;;;;4923614;28;88506;-71
2022/05/16 05:37:51;;;;;;;12.53;7.43;;;26.70;41.20;;;;;;4922267;28;88639;-71
2022/05/16 05:40:19;;;;;;;11.87;6.80;;;26.70;41.40;;;;;;4921449;28;90919;-72
2022/05/16 05:42:47;;;;;;;12.67;7.43;;;26.70;41.40;;;;;;4926017;28;89116;-71
2022/05/16 05:45:16;;;;;;;14.77;8.10;;;26.70;41.50;;;;;;4922077;28;88519;-71
2022/05/16 05:47:44;;;;;;;13.67;7.03;;;26.70;41.50;;;;;;4923729;28;88559;-71
2022/05/16 05:50:13;;;;;;;14.70;8.40;;;26.70;41.60;;;;;;4922912;28;89576;-71
2022/05/16 05:52:42;;;;;;;13.53;8.07;;;26.70;41.70;;;;;;4924202;28;91453;-71
2022/05/16 05:55:10;;;;;;;14.23;8.13;;;26.70;41.70;;;;;;4923584;28;88402;-71
2022/05/16 05:57:38;;;;;;;15.53;8.70;;;26.70;41.80;;;;;;4926042;28;88563;-71
2022/05/16 06:00:09;;;;;;;15.97;7.70;;;26.70;41.90;;;;;;4935200;28;90146;-71
2022/05/16 06:02:40;;;;;;;13.23;7.87;;;26.70;41.90;;;;;;4934833;28;90116;-71
2022/05/16 06:05:09;;;;;;;13.20;7.57;;;26.70;42.00;;;;;;4942964;28;88220;-74
2022/05/16 06:07:37;;;;;;;11.77;7.73;;;26.70;42.00;;;;;;4942702;28;88620;-68
2022/05/16 06:10:07;;;;;;;12.37;7.70;;;26.80;42.20;;;;;;4933163;28;91118;-68
2022/05/16 06:12:35;;;;;;;10.67;7.03;;;26.80;42.30;;;;;;4923232;28;91692;-67
2022/05/16 06:15:04;;;;;;;16.10;7.57;;;26.80;42.30;;;;;;4926533;28;88669;-68
2022/05/16 06:17:35;;;;;;;12.87;7.97;;;26.80;42.40;;;;;;4924021;28;88520;-69
2022/05/16 06:20:03;;;;;;;13.67;8.10;;;26.80;42.50;;;;;;4921354;28;90834;-69
2022/05/16 06:22:34;;;;;;;16.73;7.13;;;26.80;42.50;;;;;;4932878;28;89927;-69
2022/05/16 06:27:51;;;;;;;15.43;7.73;;;26.80;42.70;;;;;;4918068;28;88558;-69
2022/05/16 06:30:20;;;;;;;12.87;6.80;;;26.80;42.90;;;;;;4926504;28;90090;-71
2022/05/16 06:32:48;;;;;;;14.53;6.80;;;26.80;42.90;;;;;;4922106;28;88925;-70
2022/05/16 06:35:16;;;;;;;12.50;6.33;;;26.80;43.00;;;;;;4926703;28;88462;-69
2022/05/16 06:37:45;;;;;;;14.30;6.67;;;26.80;43.10;;;;;;4926538;28;88669;-69
2022/05/16 06:40:14;;;;;;;10.30;5.80;;;26.90;43.20;;;;;;4922227;28;91528;-70
2022/05/16 06:42:42;;;;;;;11.13;6.20;;;26.90;43.20;;;;;;4929535;28;91204;-69
2022/05/16 06:45:12;;;;;;;11.63;6.60;;;26.90;43.10;;;;;;4935341;28;88341;-69
2022/05/16 06:47:41;;;;;;;13.03;6.57;;;27.00;43.80;;;;;;4922430;28;88707;-68
2022/05/16 06:50:10;;;;;;;9.50;5.97;;;27.00;43.00;;;;;;4923050;28;91430;-67
2022/05/16 06:52:38;;;;;;;9.50;5.67;;;27.10;43.00;;;;;;4922801;28;89329;-67
2022/05/16 06:55:06;;;;;;;11.77;5.40;;;27.10;43.00;;;;;;4922792;28;88595;-68
2022/05/16 06:57:34;;;;;;;13.83;5.40;;;27.20;43.00;;;;;;4922031;28;88636;-67
2022/05/16 07:00:04;;;;;;;9.30;4.90;;;27.10;42.90;;;;;;4921996;28;90707;-67
2022/05/16 07:02:34;;;;;;;8.20;4.90;;;27.10;42.90;;;;;;4922181;28;89351;-67
2022/05/16 07:05:02;;;;;;;9.77;5.17;;;27.10;42.90;;;;;;4926391;28;89713;-67
2022/05/16 07:07:30;;;;;;;10.67;5.40;;;27.10;42.90;;;;;;4924067;28;88411;-67
2022/05/16 07:09:58;;;;;;;9.30;5.53;;;27.10;42.90;;;;;;4923206;28;90061;-68
2022/05/16 07:12:29;;;;;;;12.83;5.53;;;27.10;42.90;;;;;;4924208;28;88569;-67
2022/05/16 07:14:57;;;;;;;7.97;5.30;;;27.20;43.10;;;;;;4922436;28;88299;-67
2022/05/16 07:17:25;;;;;;;11.63;4.80;;;27.20;43.20;;;;;;4922471;28;89014;-67
2022/05/16 07:19:58;;;;;;;6.87;4.70;;;27.20;43.20;;;;;;4921625;28;90706;-67
2022/05/16 07:22:26;;;;;;;9.63;4.93;;;27.10;43.20;;;;;;4922415;28;88830;-68
2022/05/16 07:24:55;;;;;;;7.17;4.17;;;27.20;43.20;;;;;;4927870;28;88610;-67
2022/05/16 07:30:12;;;;;;;8.37;4.77;;;27.20;43.20;;;;;;4922529;28;89297;-67
2022/05/16 07:32:41;;;;;;;6.07;3.87;;;27.20;43.20;;;;;;4921491;28;88971;-68
2022/05/16 07:35:12;;;;;;;8.50;3.83;;;27.10;43.20;;;;;;4922424;28;88338;-67
2022/05/16 07:37:41;;;;;;;9.67;4.43;;;27.10;43.10;;;;;;4922145;28;88412;-66
2022/05/16 07:40:10;;;;;;;7.03;3.70;;;27.10;43.10;;;;;;4928231;28;89965;-67
2022/05/16 07:42:38;;;;;;;8.13;4.70;;;27.10;43.10;;;;;;4941724;28;90088;-66
2022/05/16 07:45:07;;;;;;;10.00;4.47;;;27.10;43.20;;;;;;4942897;28;88397;-67
2022/05/16 07:47:35;;;;;;;10.77;4.47;;;27.10;43.20;;;;;;4945498;28;88436;-68
2022/05/16 07:50:04;;;;;;;5.97;3.50;;;27.10;43.30;;;;;;4945255;28;89508;-68
2022/05/16 07:52:34;;;;;;;6.67;3.93;;;27.10;43.20;;;;;;4944207;28;91132;-68
2022/05/16 07:55:02;;;;;;;4.80;3.50;;;27.10;43.20;;;;;;4944958;28;88318;-68
2022/05/16 07:57:30;;;;;;;4.47;3.07;;;27.20;43.30;;;;;;4945229;28;88557;-68
2022/05/16 07:59:58;;;;;;;5.27;3.70;;;27.20;43.20;;;;;;4944413;28;91785;-68
2022/05/16 08:02:27;;;;;;;5.07;3.10;;;27.20;43.10;;;;;;4944872;28;90201;-68
2022/05/16 08:04:55;;;;;;;4.73;3.00;;;27.20;43.10;;;;;;4944872;28;88364;-68
2022/05/16 08:07:23;;;;;;;5.33;3.20;;;27.20;43.10;;;;;;4945220;28;88492;-68
2022/05/16 08:12:38;;;;;;;5.13;2.63;;;27.20;43.00;;;;;;4905840;28;90097;-71
2022/05/16 08:15:07;;;;;;;2.57;2.30;;;27.20;43.00;;;;;;4906112;28;88352;-69
2022/05/16 08:17:35;;;;;;;5.67;2.80;;;27.20;43.00;;;;;;4906113;28;88302;-68
2022/05/16 08:20:07;;;;;;;4.43;2.73;;;27.30;43.00;;;;;;4905305;28;91004;-68
2022/05/16 08:22:36;;;;;;;4.43;2.70;;;27.30;43.00;;;;;;4905764;28;89202;-68
2022/05/16 08:25:06;;;;;;;6.33;2.47;;;27.30;42.90;;;;;;4906021;28;88546;-68
2022/05/16 08:27:34;;;;;;;4.17;2.20;;;27.30;43.00;;;;;;4916846;28;88619;-68
2022/05/16 08:30:02;;;;;;;4.00;2.00;;;27.30;42.90;;;;;;4924013;28;90032;-68
2022/05/16 08:32:30;;;;;;;6.47;2.50;;;27.30;42.90;;;;;;4924539;28;89300;-68
2022/05/16 08:35:02;;;;;;;3.00;2.07;;;27.30;42.90;;;;;;4924844;28;88513;-68
2022/05/16 08:40:18;;;;;;;4.83;1.87;;;27.40;43.00;;;;;;4924464;28;88949;-68
2022/05/16 08:42:50;;;;;;;3.50;2.20;;;27.30;42.90;;;;;;4923845;28;88818;-68
2022/05/16 08:45:19;;;;;;;1.93;1.70;;;27.30;42.90;;;;;;4924593;28;88503;-68
2022/05/16 08:47:55;;;;;;;2.43;2.00;;;27.30;42.90;;;;;;4924500;28;88480;-69
2022/05/16 08:50:26;;;;;;;5.50;2.40;;;27.30;42.90;;;;;;4924602;28;90932;-68
2022/05/16 08:53:08;;;;;;;3.50;1.90;;;27.30;42.90;;;;;;4923059;28;88966;-68
2022/05/16 08:55:39;;;;;;;3.37;1.63;;;27.40;43.00;;;;;;4924291;28;88398;-67
2022/05/16 08:58:10;;;;;;;2.40;1.60;;;27.30;43.00;;;;;;4924593;28;88544;-68
2022/05/16 09:00:41;;;;;;;1.63;1.20;;;27.30;43.00;;;;;;4924264;28;91110;-68
2022/05/16 09:03:13;;;;;;;2.40;1.60;;;27.30;43.00;;;;;;4923600;28;88946;-68
2022/05/16 09:05:45;;;;;;;4.30;1.17;;;27.30;43.10;;;;;;4925121;28;88270;-68
2022/05/16 09:08:15;;;;;;;3.73;1.43;;;27.30;43.20;;;;;;4924048;28;88480;-67
2022/05/16 09:10:54;;;;;;;3.40;1.80;;;27.30;43.20;;;;;;4924014;28;89364;-68
2022/05/16 09:13:27;;;;;;;7.73;1.70;;;27.30;43.20;;;;;;4924268;28;88923;-68
2022/05/16 09:15:59;;;;;;;4.53;1.70;;;27.30;43.20;;;;;;4923528;28;88578;-68
2022/05/16 09:18:33;;;;;;;1.27;1.17;;;27.30;43.30;;;;;;4924494;28;88333;-68
2022/05/16 09:21:07;;;;;;;3.23;1.17;;;27.30;43.90;;;;;;4923106;28;90622;-68
2022/05/16 09:23:48;;;;;;;1.23;1.13;;;27.40;43.40;;;;;;4923257;28;90269;-68
2022/05/16 09:26:28;;;;;;;2.90;1.07;;;27.40;43.40;;;;;;4923725;28;88623;-71
2022/05/16 09:28:58;;;;;;;1.83;1.37;;;27.40;43.30;;;;;;4923685;28;88582;-71
2022/05/16 09:31:28;;;;;;;2.83;1.30;;;27.40;43.40;;;;;;4924034;28;91075;-70
2022/05/16 09:33:58;;;;;;;1.63;1.50;;;27.40;43.40;;;;;;4922771;28;88848;-71
2022/05/16 09:36:27;;;;;;;1.37;1.13;;;27.40;43.50;;;;;;4923384;28;88603;-71
2022/05/16 09:38:55;;;;;;;2.53;1.27;;;27.40;43.50;;;;;;4924174;28;88606;-71
2022/05/16 09:41:27;;;;;;;6.90;1.27;;;27.40;44.20;;;;;;4923805;28;90977;-71
2022/05/16 09:44:04;;;;;;;1.47;1.00;;;27.40;43.60;;;;;;4923714;28;89893;-71
2022/05/16 09:46:35;;;;;;;0.70;0.70;;;27.30;43.60;;;;;;4923946;28;88338;-71
2022/05/16 09:49:05;;;;;;;2.27;1.37;;;27.30;43.70;;;;;;4923985;28;88731;-71
2022/05/16 09:51:43;;;;;;;1.80;1.20;;;27.40;43.80;;;;;;4923381;28;90618;-71
2022/05/16 09:54:18;;;;;;;1.73;1.10;;;27.30;43.80;;;;;;4923184;28;88339;-71
2022/05/16 09:57:08;;;;;;;1.23;0.90;;;27.30;43.80;;;;;;4923602;28;88582;-71
2022/05/16 09:59:39;;;;;;;1.87;1.20;;;27.30;43.80;;;;;;4923438;28;88513;-71
2022/05/16 10:02:15;;;;;;;2.47;1.03;;;27.30;43.80;;;;;;4922910;28;90973;-71
2022/05/16 10:04:55;;;;;;;1.10;0.90;;;27.30;43.90;;;;;;4922604;28;91808;-71
2022/05/16 10:07:41;;;;;;;2.90;1.20;;;27.30;43.90;;;;;;4922716;28;88359;-72
2022/05/16 10:10:11;;;;;;;2.33;1.40;;;27.20;44.00;;;;;;4923481;28;88461;-71
2022/05/16 10:12:40;;;;;;;3.13;1.13;;;27.30;44.10;;;;;;4922932;28;92640;-71
2022/05/16 10:15:09;;;;;;;2.50;1.10;;;27.30;44.10;;;;;;4923655;28;89385;-71
2022/05/16 10:17:38;;;;;;;2.60;1.07;;;27.30;44.10;;;;;;4923755;28;88549;-71
2022/05/16 10:20:12;;;;;;;2.83;1.23;;;27.40;44.20;;;;;;4923777;28;88659;-70
2022/05/16 10:22:40;;;;;;;2.07;1.60;;;27.30;44.10;;;;;;4923589;28;90657;-71
2022/05/16 10:25:32;;;;;;;1.37;1.13;;;27.40;44.20;;;;;;4922644;28;90674;-71
2022/05/16 10:28:01;;;;;;;1.27;1.13;;;27.40;44.20;;;;;;4923174;28;88520;-71
2022/05/16 10:30:31;;;;;;;2.97;1.37;;;27.30;44.30;;;;;;4923551;28;88513;-71
2022/05/16 10:35:48;;;;;;;2.83;1.33;;;27.40;44.50;;;;;;4923304;28;89956;-70
2022/05/16 10:38:24;;;;;;;3.77;1.20;;;27.40;44.60;;;;;;4923183;28;88400;-70
2022/05/16 10:40:56;;;;;;;2.07;1.13;;;27.30;44.60;;;;;;4923465;28;88357;-71
2022/05/16 10:43:33;;;;;;;4.03;1.20;;;27.40;44.70;;;;;;4923435;28;90190;-71
2022/05/16 10:46:03;;;;;;;2.07;1.37;;;27.30;44.80;;;;;;4923031;28;90080;-71
2022/05/16 10:48:39;;;;;;;1.40;1.23;;;27.40;45.50;;;;;;4923366;28;88330;-68
2022/05/16 10:51:10;;;;;;;4.93;1.07;;;27.40;45.00;;;;;;4922744;28;88389;-68
2022/05/16 10:53:40;;;;;;;2.33;1.23;;;27.40;45.00;;;;;;4922815;28;93342;-67
2022/05/16 10:56:15;;;;;;;4.23;1.63;;;27.30;45.00;;;;;;4923110;28;92043;-67
2022/05/16 10:58:48;;;;;;;3.37;1.40;;;27.30;45.10;;;;;;4922644;28;88471;-68
2022/05/16 11:01:20;;;;;;;3.50;1.80;;;27.30;45.10;;;;;;4922348;28;88658;-67
2022/05/16 11:03:59;;;;;;;2.30;1.27;;;27.30;45.10;;;;;;4921858;28;89468;-67
2022/05/16 11:06:42;;;;;;;1.77;1.40;;;27.30;45.20;;;;;;4922535;28;89134;-67
2022/05/16 11:09:12;;;;;;;4.00;2.00;;;27.30;45.20;;;;;;4923060;28;88842;-67
2022/05/16 11:11:43;;;;;;;5.47;2.13;;;27.30;45.20;;;;;;4921844;28;88508;-67
2022/05/16 11:14:16;;;;;;;4.37;1.50;;;27.30;45.20;;;;;;4922034;28;90846;-67
2022/05/16 11:16:45;;;;;;;4.43;1.77;;;27.30;45.20;;;;;;4921790;28;92403;-67
2022/05/16 11:19:20;;;;;;;4.20;1.80;;;27.30;45.30;;;;;;4923777;28;88266;-67
2022/05/16 11:21:50;;;;;;;2.73;1.77;;;27.30;45.30;;;;;;4926455;28;88460;-67
2022/05/16 11:24:29;;;;;;;2.53;1.40;;;27.30;45.40;;;;;;4926064;28;89402;-68
2022/05/16 11:27:03;;;;;;;3.70;1.90;;;27.30;45.40;;;;;;4925945;28;90371;-68
2022/05/16 11:29:39;;;;;;;2.40;1.40;;;27.30;45.40;;;;;;4925972;28;89529;-68
2022/05/16 11:32:14;;;;;;;2.10;1.33;;;27.30;45.50;;;;;;4925641;28;88676;-68
2022/05/16 11:34:50;;;;;;;5.10;1.40;;;27.30;45.60;;;;;;4925631;28;90673;-68
2022/05/16 11:37:25;;;;;;;3.57;1.80;;;27.20;45.60;;;;;;4926152;28;89406;-68
2022/05/16 11:39:55;;;;;;;5.13;1.87;;;27.20;45.70;;;;;;4925493;28;88239;-70
2022/05/16 11:42:27;;;;;;;5.80;1.87;;;27.20;45.80;;;;;;4925859;28;88425;-69
2022/05/16 11:45:06;;;;;;;4.50;1.83;;;27.20;45.90;;;;;;4925657;28;89382;-69
2022/05/16 11:47:37;;;;;;;5.67;1.53;;;27.20;45.90;;;;;;4925389;28;89976;-69
2022/05/16 11:50:28;;;;;;;1.67;1.30;;;27.20;45.90;;;;;;4925717;28;88563;-68
2022/05/16 11:53:11;;;;;;;3.53;1.50;;;27.20;45.90;;;;;;4925784;28;88523;-68
2022/05/16 12:01:32;;;;;;;5.20;1.73;;;27.20;45.90;;;;;;4925777;28;88385;-68
2022/05/16 12:04:13;;;;;;;6.17;1.63;;;27.20;45.90;;;;;;4925176;28;88547;-68
2022/05/16 12:06:42;;;;;;;2.93;1.63;;;27.20;45.90;;;;;;4924732;28;89585;-68
2022/05/16 12:09:18;;;;;;;2.00;1.47;;;27.30;45.90;;;;;;4924748;28;90460;-68
2022/05/16 12:11:53;;;;;;;3.60;1.60;;;27.30;45.80;;;;;;4925100;28;88263;-67
2022/05/16 12:14:29;;;;;;;4.07;1.60;;;27.30;45.80;;;;;;4925048;28;88588;-68
2022/05/16 12:17:00;;;;;;;2.67;1.67;;;27.30;46.40;;;;;;4924994;28;90492;-67
2022/05/16 12:19:34;;;;;;;1.33;1.23;;;27.40;45.80;;;;;;4924987;28;88695;-67
2022/05/16 12:22:04;;;;;;;4.67;1.50;;;27.40;45.80;;;;;;4924891;28;88343;-67
2022/05/16 12:25:00;;;;;;;3.60;1.40;;;27.40;45.80;;;;;;4924161;28;88629;-68
2022/05/16 12:27:30;;;;;;;2.70;1.40;;;27.40;45.80;;;;;;4910951;28;89155;-67
2022/05/16 12:30:01;;;;;;;3.07;1.17;;;27.40;45.70;;;;;;4905585;28;89551;-67
2022/05/16 12:32:54;;;;;;;1.80;1.30;;;27.40;45.60;;;;;;4916761;28;88399;-68
2022/05/16 12:35:40;;;;;;;1.97;1.17;;;27.40;45.70;;;;;;4927326;28;88667;-68
2022/05/16 12:38:09;;;;;;;1.67;1.40;;;27.40;45.60;;;;;;4936882;28;90545;-68
2022/05/16 12:41:12;;;;;;;2.33;1.63;;;27.50;45.60;;;;;;4925620;28;89982;-68
2022/05/16 12:43:48;;;;;;;4.67;1.37;;;27.40;45.60;;;;;;4924614;28;88493;-68
2022/05/16 12:46:24;;;;;;;4.57;1.43;;;27.40;45.60;;;;;;4924414;28;88521;-68
2022/05/16 12:49:28;;;;;;;3.00;1.37;;;27.30;45.70;;;;;;4924537;28;89302;-68
2022/05/16 12:51:59;;;;;;;3.83;1.47;;;27.30;45.80;;;;;;4923858;28;89975;-68
2022/05/16 12:55:10;;;;;;;4.63;1.53;;;27.20;45.80;;;;;;4924395;28;88288;-68
2022/05/16 12:57:54;;;;;;;4.93;1.80;;;27.20;45.90;;;;;;4946765;28;88434;-67
2022/05/16 13:00:24;;;;;;;2.60;1.80;;;27.10;45.90;;;;;;4933445;28;88989;-68
2022/05/16 13:03:02;;;;;;;7.47;1.87;;;27.20;45.90;;;;;;4923916;28;90187;-69
2022/05/16 13:05:37;;;;;;;1.77;1.37;;;27.10;45.90;;;;;;4933294;28;89734;-68
2022/05/16 13:08:29;;;;;;;2.30;1.43;;;27.20;45.90;;;;;;4943237;28;88672;-68
2022/05/16 13:11:05;;;;;;;1.73;1.00;;;27.20;45.90;;;;;;4927024;28;92056;-67
2022/05/16 13:13:41;;;;;;;3.33;1.60;;;27.20;45.90;;;;;;4949144;28;88734;-67
2022/05/16 13:16:13;;;;;;;4.03;1.30;;;27.20;45.90;;;;;;4924324;28;88187;-68
2022/05/16 13:18:45;;;;;;;3.30;1.57;;;27.20;45.90;;;;;;4930090;28;88961;-67
2022/05/16 13:21:21;;;;;;;2.87;1.33;;;27.20;45.90;;;;;;4940925;28;88952;-67
2022/05/16 13:23:49;;;;;;;5.23;1.10;;;27.20;45.90;;;;;;4923359;28;90339;-67
2022/05/16 13:31:51;;;;;;;4.07;1.43;;;27.30;45.80;;;;;;4919056;28;90873;-67
2022/05/16 13:34:31;;;;;;;3.77;1.50;;;27.30;45.80;;;;;;4923017;28;89270;-67
2022/05/16 13:37:00;;;;;;;10.27;1.60;;;27.30;45.80;;;;;;4921651;28;88555;-68
2022/05/16 13:39:34;;;;;;;3.77;1.47;;;27.30;45.80;;;;;;4922807;28;89038;-68
2022/05/16 13:42:02;;;;;;;2.83;1.43;;;27.30;45.80;;;;;;4920193;28;90656;-67
2022/05/16 13:44:34;;;;;;;2.73;1.57;;;27.20;45.80;;;;;;4922152;28;90072;-67